createdAt,value
2022-12-26T00:00:54.686Z,12.70
2022-12-26T00:03:37.126Z,13.53
2022-12-26T00:06:06.186Z,13.97
2022-12-26T00:08:34.972Z,13.20
2022-12-26T00:11:04.750Z,11.83
2022-12-26T00:13:39.621Z,12.20
2022-12-26T00:16:11.136Z,11.97
2022-12-26T00:18:40.477Z,11.50
2022-12-26T00:21:10.722Z,12.73
2022-12-26T00:23:40.422Z,11.93
2022-12-26T00:26:12.021Z,12.03
2022-12-26T00:28:40.787Z,12.03
2022-12-26T00:31:11.809Z,16.13
2022-12-26T00:33:40.771Z,12.70
2022-12-26T00:36:11.324Z,12.03
2022-12-26T00:38:41.451Z,12.93
2022-12-26T00:41:13.989Z,12.57
2022-12-26T00:43:43.249Z,13.10
2022-12-26T00:46:12.211Z,12.70
2022-12-26T00:48:41.388Z,11.90
2022-12-26T00:51:09.885Z,12.73
2022-12-26T00:53:39.005Z,12.03
2022-12-26T00:56:08.265Z,12.40
2022-12-26T00:58:39.262Z,14.43
2022-12-26T01:01:09.975Z,12.73
2022-12-26T01:03:39.922Z,12.97
2022-12-26T01:06:08.546Z,13.17
2022-12-26T01:08:37.385Z,13.37
2022-12-26T01:11:08.096Z,11.80
2022-12-26T01:13:38.642Z,12.97
2022-12-26T01:16:08.261Z,12.30
2022-12-26T01:18:37.613Z,13.03
2022-12-26T01:21:08.243Z,11.73
2022-12-26T01:23:37.169Z,13.03
2022-12-26T01:26:14.899Z,13.90
2022-12-26T01:28:49.556Z,11.43
2022-12-26T01:31:18.894Z,11.80
2022-12-26T01:33:47.932Z,14.03
2022-12-26T01:36:17.330Z,12.63
2022-12-26T01:38:46.102Z,12.63
2022-12-26T01:41:21.312Z,12.30
2022-12-26T01:43:57.357Z,11.63
2022-12-26T01:46:29.933Z,11.93
2022-12-26T01:49:01.108Z,12.60
2022-12-26T01:51:34.979Z,12.93
2022-12-26T01:54:39.168Z,12.47
2022-12-26T01:56:58.776Z,11.10
2022-12-26T01:59:31.052Z,12.07
2022-12-26T02:02:00.846Z,11.43
2022-12-26T02:04:56.878Z,11.73
2022-12-26T02:07:25.798Z,11.73
2022-12-26T02:09:54.881Z,11.60
2022-12-26T02:12:36.484Z,11.00
2022-12-26T02:15:11.354Z,9.53
2022-12-26T02:17:40.459Z,12.17
2022-12-26T02:20:18.258Z,10.20
2022-12-26T02:23:25.198Z,10.40
2022-12-26T02:26:26.548Z,11.13
2022-12-26T02:29:31.241Z,10.90
2022-12-26T02:32:10.105Z,9.83
2022-12-26T02:34:46.786Z,11.93
2022-12-26T02:37:25.889Z,10.50
2022-12-26T02:40:14.184Z,9.97
2022-12-26T02:42:57.134Z,11.13
2022-12-26T02:45:51.665Z,12.20
2022-12-26T02:48:31.949Z,11.17
2022-12-26T02:51:25.911Z,10.57
2022-12-26T02:54:25.106Z,10.53
2022-12-26T02:57:16.222Z,9.70
2022-12-26T03:00:11.390Z,9.67
2022-12-26T03:03:03.324Z,11.07
2022-12-26T03:06:01.001Z,11.03
2022-12-26T03:08:50.457Z,10.77
2022-12-26T03:11:36.825Z,11.50
2022-12-26T03:14:13.525Z,12.17
2022-12-26T03:16:59.866Z,13.07
2022-12-26T03:19:30.701Z,11.07
2022-12-26T03:22:23.429Z,13.30
2022-12-26T03:25:07.924Z,11.73
2022-12-26T03:27:36.584Z,13.03
2022-12-26T03:30:28.690Z,13.83
2022-12-26T03:32:58.159Z,14.17
2022-12-26T03:35:30.362Z,12.27
2022-12-26T03:38:06.160Z,13.30
2022-12-26T03:41:02.306Z,13.67
2022-12-26T03:44:06.196Z,13.03
2022-12-26T03:47:02.982Z,13.40
2022-12-26T03:49:55.281Z,14.43
2022-12-26T03:52:48.469Z,15.37
2022-12-26T03:55:50.135Z,14.53
2022-12-26T03:58:41.824Z,13.33
2022-12-26T04:01:34.340Z,13.77
2022-12-26T04:04:22.606Z,14.57
2022-12-26T04:07:14.660Z,14.83
2022-12-26T04:10:03.843Z,13.73
2022-12-26T04:12:52.361Z,15.20
2022-12-26T04:15:43.748Z,11.93
2022-12-26T04:18:36.896Z,13.77
2022-12-26T04:21:31.105Z,14.40
2022-12-26T04:24:21.682Z,12.53
2022-12-26T04:27:11.834Z,12.00
2022-12-26T04:29:59.387Z,12.13
2022-12-26T04:32:53.014Z,13.00
2022-12-26T04:35:43.251Z,13.43
2022-12-26T04:38:35.238Z,11.70
2022-12-26T04:41:22.611Z,12.13
2022-12-26T04:44:05.779Z,12.00
2022-12-26T04:46:37.941Z,10.90
2022-12-26T04:49:25.524Z,11.50
2022-12-26T04:51:56.134Z,12.23
2022-12-26T04:54:25.227Z,12.37
2022-12-26T04:56:54.205Z,10.93
2022-12-26T04:59:23.057Z,11.23
2022-12-26T05:02:10.551Z,11.90
2022-12-26T05:04:56.398Z,10.67
2022-12-26T05:07:46.048Z,11.23
2022-12-26T05:10:18.613Z,10.53
2022-12-26T05:12:47.480Z,12.17
2022-12-26T05:15:16.514Z,11.23
2022-12-26T05:18:04.183Z,10.70
2022-12-26T05:20:50.613Z,10.90
2022-12-26T05:23:39.811Z,10.53
2022-12-26T05:26:30.193Z,10.97
2022-12-26T05:29:01.176Z,9.13
2022-12-26T05:31:34.958Z,9.83
2022-12-26T05:34:06.022Z,11.33
2022-12-26T05:36:39.125Z,10.13
2022-12-26T05:39:08.995Z,10.50
2022-12-26T05:41:38.173Z,9.97
2022-12-26T05:44:07.104Z,9.30
2022-12-26T05:46:35.912Z,10.20
2022-12-26T05:49:07.218Z,10.70
2022-12-26T05:51:36.003Z,10.00
2022-12-26T05:54:04.825Z,9.13
2022-12-26T05:56:33.125Z,9.67
2022-12-26T05:59:02.794Z,9.53
2022-12-26T06:01:31.927Z,9.57
2022-12-26T06:04:01.859Z,11.03
2022-12-26T06:06:31.780Z,9.33
2022-12-26T06:09:00.496Z,10.13
2022-12-26T06:11:28.858Z,10.07
2022-12-26T06:13:57.725Z,9.77
2022-12-26T06:16:26.188Z,10.17
2022-12-26T06:18:56.205Z,8.17
2022-12-26T06:21:25.469Z,9.67
2022-12-26T06:23:55.516Z,9.37
2022-12-26T06:26:24.040Z,9.27
2022-12-26T06:28:53.210Z,10.43
2022-12-26T06:31:23.711Z,8.63
2022-12-26T06:33:55.542Z,9.20
2022-12-26T06:36:25.954Z,9.43
2022-12-26T06:38:56.984Z,8.60
2022-12-26T06:41:26.260Z,8.47
2022-12-26T06:43:55.973Z,8.27
2022-12-26T06:46:26.443Z,8.37
2022-12-26T06:48:55.601Z,9.20
2022-12-26T06:51:26.997Z,7.53
2022-12-26T06:53:57.208Z,9.00
2022-12-26T06:56:27.638Z,8.40
2022-12-26T06:58:57.109Z,8.10
2022-12-26T07:01:26.929Z,8.47
2022-12-26T07:03:56.741Z,7.93
2022-12-26T07:06:27.684Z,8.27
2022-12-26T07:08:59.588Z,7.00
2022-12-26T07:11:31.500Z,8.07
2022-12-26T07:14:00.814Z,8.13
2022-12-26T07:16:29.793Z,7.50
2022-12-26T07:18:59.806Z,7.80
2022-12-26T07:21:31.276Z,7.57
2022-12-26T07:24:03.689Z,7.20
2022-12-26T07:26:32.163Z,7.13
2022-12-26T07:29:01.168Z,6.73
2022-12-26T07:31:29.707Z,7.07
2022-12-26T07:33:58.927Z,7.87
2022-12-26T07:36:27.779Z,7.40
2022-12-26T07:38:56.687Z,6.80
2022-12-26T07:41:44.273Z,6.70
2022-12-26T07:44:13.399Z,6.93
2022-12-26T07:46:42.046Z,6.50
2022-12-26T07:49:13.272Z,6.40
2022-12-26T07:51:42.925Z,7.10
2022-12-26T07:54:12.156Z,6.37
2022-12-26T07:56:42.528Z,5.67
2022-12-26T07:59:15.508Z,6.53
2022-12-26T08:01:44.506Z,6.53
2022-12-26T08:04:13.947Z,6.33
2022-12-26T08:06:42.637Z,6.50
2022-12-26T08:09:16.463Z,6.50
2022-12-26T08:11:46.301Z,6.90
2022-12-26T08:14:16.846Z,6.67
2022-12-26T08:16:51.325Z,5.80
2022-12-26T08:19:22.053Z,5.23
2022-12-26T08:21:50.582Z,5.47
2022-12-26T08:24:21.964Z,6.20
2022-12-26T08:26:51.830Z,5.37
2022-12-26T08:29:20.429Z,5.73
2022-12-26T08:31:48.992Z,5.93
2022-12-26T08:34:17.675Z,5.00
2022-12-26T08:36:46.770Z,5.13
2022-12-26T08:39:15.769Z,5.97
2022-12-26T08:41:44.343Z,5.40
2022-12-26T08:44:27.159Z,5.03
2022-12-26T08:46:56.618Z,5.00
2022-12-26T08:49:25.789Z,5.23
2022-12-26T08:51:54.278Z,4.93
2022-12-26T08:54:22.983Z,4.97
2022-12-26T08:56:51.789Z,4.57
2022-12-26T08:59:21.997Z,4.70
2022-12-26T09:01:50.975Z,3.80
2022-12-26T09:04:19.931Z,4.43
2022-12-26T09:06:48.356Z,4.30
2022-12-26T09:09:18.033Z,4.07
2022-12-26T09:11:46.373Z,4.60
2022-12-26T09:14:15.236Z,3.77
2022-12-26T09:16:50.463Z,4.83
2022-12-26T09:19:21.242Z,4.10
2022-12-26T09:22:12.016Z,3.93
2022-12-26T09:24:40.701Z,4.07
2022-12-26T09:27:10.042Z,4.50
2022-12-26T09:29:39.381Z,3.90
2022-12-26T09:32:09.311Z,4.03
2022-12-26T09:34:37.993Z,3.97
2022-12-26T09:37:06.239Z,3.83
2022-12-26T09:39:35.346Z,3.20
2022-12-26T09:42:14.402Z,3.70
2022-12-26T09:44:51.847Z,3.53
2022-12-26T09:47:32.774Z,3.70
2022-12-26T09:50:06.940Z,4.13
2022-12-26T09:52:42.898Z,3.63
2022-12-26T09:55:33.658Z,3.53
2022-12-26T09:58:09.807Z,4.37
2022-12-26T10:00:45.633Z,3.83
2022-12-26T10:03:15.377Z,3.33
2022-12-26T10:05:55.512Z,3.85
2022-12-26T10:08:33.502Z,3.58
2022-12-26T10:11:04.530Z,3.23
2022-12-26T10:13:40.184Z,4.00
2022-12-26T10:16:17.122Z,3.77
2022-12-26T10:18:58.011Z,3.53
2022-12-26T10:21:42.103Z,3.50
2022-12-26T10:24:16.897Z,3.47
2022-12-26T10:26:49.982Z,3.03
2022-12-26T10:29:24.576Z,3.22
2022-12-26T10:31:57.967Z,3.73
2022-12-26T10:34:32.141Z,3.30
2022-12-26T10:37:02.673Z,3.65
2022-12-26T10:39:36.177Z,3.22
2022-12-26T10:42:12.973Z,2.80
2022-12-26T10:44:41.816Z,2.50
2022-12-26T10:47:23.153Z,2.67
2022-12-26T10:49:53.771Z,3.63
2022-12-26T10:52:31.678Z,3.28
2022-12-26T10:55:31.235Z,3.05
2022-12-26T10:57:53.344Z,2.83
2022-12-26T11:00:23.958Z,3.05
2022-12-26T11:03:07.473Z,2.78
2022-12-26T11:08:40.870Z,2.97
2022-12-26T11:11:15.654Z,3.13
2022-12-26T11:13:49.769Z,2.78
2022-12-26T11:16:26.743Z,2.92
2022-12-26T11:18:56.135Z,3.05
2022-12-26T11:21:28.372Z,2.85
2022-12-26T11:24:17.327Z,3.40
2022-12-26T11:26:45.800Z,3.75
2022-12-26T11:29:16.485Z,3.33
2022-12-26T11:31:52.335Z,3.20
2022-12-26T11:34:35.191Z,3.47
2022-12-26T11:37:07.470Z,2.88
2022-12-26T11:39:38.445Z,3.63
2022-12-26T11:42:12.130Z,2.95
2022-12-26T11:44:45.744Z,2.80
2022-12-26T11:47:17.384Z,3.28
2022-12-26T11:49:55.962Z,3.88
2022-12-26T11:52:40.761Z,3.65
2022-12-26T11:55:29.420Z,3.08
2022-12-26T11:58:01.826Z,3.28
2022-12-26T12:00:31.197Z,2.92
2022-12-26T12:03:00.351Z,3.78
2022-12-26T12:05:46.117Z,3.30
2022-12-26T12:08:38.430Z,4.10
2022-12-26T12:11:23.264Z,3.73
2022-12-26T12:14:16.220Z,2.67
2022-12-26T12:16:56.623Z,4.15
2022-12-26T12:19:39.002Z,3.37
2022-12-26T12:22:31.982Z,3.17
2022-12-26T12:25:23.278Z,3.50
2022-12-26T12:28:01.080Z,3.27
2022-12-26T12:30:37.497Z,3.47
2022-12-26T12:33:24.687Z,2.75
2022-12-26T12:36:04.738Z,2.13
2022-12-26T12:38:37.920Z,2.22
2022-12-26T12:41:29.375Z,2.15
2022-12-26T12:44:06.059Z,2.22
2022-12-26T12:46:44.351Z,2.65
2022-12-26T12:49:28.374Z,2.93
2022-12-26T12:52:07.195Z,2.00
2022-12-26T12:55:21.170Z,2.17
2022-12-26T12:57:57.724Z,2.22
2022-12-26T13:00:29.569Z,2.75
2022-12-26T13:03:04.160Z,2.73
2022-12-26T13:05:45.859Z,2.28
2022-12-26T13:08:20.027Z,2.67
2022-12-26T13:10:53.020Z,2.27
2022-12-26T13:13:28.454Z,2.07
2022-12-26T13:16:04.287Z,2.93
2022-12-26T13:18:37.057Z,2.40
2022-12-26T13:21:08.854Z,2.80
2022-12-26T13:24:11.249Z,2.90
2022-12-26T13:26:43.815Z,2.88
2022-12-26T13:29:17.868Z,2.22
2022-12-26T13:31:47.406Z,2.37
2022-12-26T13:34:18.356Z,2.72
2022-12-26T13:36:49.105Z,2.27
2022-12-26T13:39:42.288Z,2.53
2022-12-26T13:42:52.928Z,2.42
2022-12-26T13:45:48.670Z,2.95
2022-12-26T13:48:57.075Z,2.70
2022-12-26T13:51:54.181Z,3.03
2022-12-26T13:54:24.703Z,3.22
2022-12-26T13:57:36.663Z,3.53
2022-12-26T14:00:18.569Z,2.90
2022-12-26T14:03:35.104Z,3.78
2022-12-26T14:06:37.926Z,2.93
2022-12-26T14:09:24.024Z,2.50
2022-12-26T14:12:40.230Z,3.20
2022-12-26T14:15:27.806Z,2.87
2022-12-26T14:18:21.468Z,3.65
2022-12-26T14:20:56.204Z,3.03
2022-12-26T14:23:37.954Z,3.30
2022-12-26T14:26:21.074Z,3.23
2022-12-26T14:28:59.921Z,3.27
2022-12-26T14:31:38.205Z,3.07
2022-12-26T14:34:22.426Z,2.97
2022-12-26T14:36:56.997Z,2.90
2022-12-26T14:39:37.713Z,3.77
2022-12-26T14:42:39.596Z,2.90
2022-12-26T14:45:36.736Z,3.63
2022-12-26T14:48:31.131Z,3.00
2022-12-26T14:51:33.189Z,2.93
2022-12-26T14:54:38.025Z,2.70
2022-12-26T14:57:44.441Z,3.13
2022-12-26T15:00:32.648Z,2.60
2022-12-26T15:03:39.735Z,3.00
2022-12-26T15:06:53.725Z,2.97
2022-12-26T15:09:54.420Z,2.00
2022-12-26T15:13:07.015Z,2.93
2022-12-26T15:15:46.799Z,2.95
2022-12-26T15:18:53.641Z,2.83
2022-12-26T15:21:52.122Z,2.95
2022-12-26T15:27:59.521Z,2.97
2022-12-26T15:30:48.517Z,2.77
2022-12-26T15:33:24.919Z,3.08
2022-12-26T15:36:03.935Z,3.53
2022-12-26T15:38:41.944Z,3.40
2022-12-26T15:41:17.144Z,3.77
2022-12-26T15:44:04.465Z,3.27
2022-12-26T15:46:42.399Z,4.30
2022-12-26T15:49:39.984Z,3.87
2022-12-26T15:52:16.911Z,4.37
2022-12-26T15:55:14.577Z,4.40
2022-12-26T15:57:52.094Z,4.00
2022-12-26T16:00:25.783Z,4.97
2022-12-26T16:03:11.699Z,6.05
2022-12-26T16:05:56.206Z,5.72
2022-12-26T16:08:46.922Z,5.17
2022-12-26T16:11:20.843Z,6.00
2022-12-26T16:13:52.141Z,6.03
2022-12-26T16:16:33.427Z,6.47
2022-12-26T16:19:19.485Z,6.40
2022-12-26T16:22:29.467Z,8.05
2022-12-26T16:24:57.902Z,7.93
2022-12-26T16:27:26.871Z,11.33
2022-12-26T16:29:58.124Z,12.30
2022-12-26T16:32:31.033Z,11.45
2022-12-26T16:35:01.113Z,11.00
2022-12-26T16:37:31.638Z,11.07
2022-12-26T16:40:09.114Z,11.90
2022-12-26T16:42:37.711Z,9.97
2022-12-26T16:45:19.026Z,9.23
2022-12-26T16:47:48.629Z,8.67
2022-12-26T16:50:20.807Z,7.60
2022-12-26T16:52:50.261Z,7.80
2022-12-26T16:55:34.212Z,7.40
2022-12-26T16:58:05.767Z,6.13
2022-12-26T17:00:35.020Z,5.50
2022-12-26T17:03:10.771Z,5.67
2022-12-26T17:05:43.999Z,5.03
2022-12-26T17:08:16.009Z,4.20
2022-12-26T17:10:49.932Z,4.50
2022-12-26T17:13:22.007Z,3.97
2022-12-26T17:15:54.900Z,4.53
2022-12-26T17:18:49.015Z,3.57
2022-12-26T17:21:27.279Z,3.67
2022-12-26T17:24:16.196Z,3.37
2022-12-26T17:26:45.310Z,3.67
2022-12-26T17:29:36.760Z,3.63
2022-12-26T17:32:09.550Z,3.53
2022-12-26T17:34:40.758Z,3.20
2022-12-26T17:37:20.124Z,3.03
2022-12-26T17:40:03.000Z,3.83
2022-12-26T17:42:38.827Z,3.42
2022-12-26T17:45:08.172Z,3.20
2022-12-26T17:47:36.489Z,3.43
2022-12-26T17:50:05.899Z,2.63
2022-12-26T17:52:36.065Z,3.30
2022-12-26T17:55:06.333Z,3.40
2022-12-26T17:57:34.774Z,3.00
2022-12-26T18:00:04.390Z,3.17
2022-12-26T18:02:32.909Z,3.08
2022-12-26T18:05:01.767Z,2.65
2022-12-26T18:07:31.752Z,3.03
2022-12-26T18:10:02.436Z,3.00
2022-12-26T18:12:30.924Z,3.22
2022-12-26T18:15:02.485Z,2.77
2022-12-26T18:17:34.373Z,3.57
2022-12-26T18:20:03.391Z,3.63
2022-12-26T18:22:31.865Z,3.60
2022-12-26T18:25:01.943Z,3.53
2022-12-26T18:27:32.230Z,3.93
2022-12-26T18:30:01.886Z,4.97
2022-12-26T18:32:32.622Z,5.63
2022-12-26T18:35:02.167Z,5.47
2022-12-26T18:37:31.629Z,5.38
2022-12-26T18:40:02.439Z,4.57
2022-12-26T18:42:30.796Z,5.18
2022-12-26T18:44:59.553Z,5.87
2022-12-26T18:47:27.890Z,4.28
2022-12-26T18:49:56.474Z,4.82
2022-12-26T18:52:24.745Z,4.43
2022-12-26T18:54:53.325Z,5.33
2022-12-26T18:57:23.048Z,4.38
2022-12-26T18:59:51.680Z,4.23
2022-12-26T19:02:20.654Z,4.30
2022-12-26T19:04:49.994Z,4.57
2022-12-26T19:07:22.196Z,5.13
2022-12-26T19:09:55.043Z,3.93
2022-12-26T19:12:25.458Z,4.47
2022-12-26T19:14:56.842Z,3.77
2022-12-26T19:17:25.198Z,4.63
2022-12-26T19:19:53.815Z,4.07
2022-12-26T19:22:22.309Z,4.50
2022-12-26T19:24:51.082Z,4.00
2022-12-26T19:27:19.581Z,4.22
2022-12-26T19:29:50.034Z,4.40
2022-12-26T19:32:18.454Z,4.40
2022-12-26T19:34:47.170Z,4.87
2022-12-26T19:37:18.057Z,4.37
2022-12-26T19:39:46.817Z,4.03
2022-12-26T19:42:15.263Z,4.55
2022-12-26T19:44:44.445Z,4.07
2022-12-26T19:47:14.238Z,4.07
2022-12-26T19:49:43.266Z,4.13
2022-12-26T19:52:12.389Z,4.17
2022-12-26T19:54:41.346Z,4.25
2022-12-26T19:57:09.923Z,4.13
2022-12-26T19:59:38.713Z,3.87
2022-12-26T20:02:07.344Z,4.40
2022-12-26T20:04:37.842Z,3.37
2022-12-26T20:07:06.810Z,3.40
2022-12-26T20:09:35.563Z,4.10
2022-12-26T20:12:04.314Z,4.53
2022-12-26T20:14:33.694Z,3.50
2022-12-26T20:17:05.570Z,4.23
2022-12-26T20:19:35.803Z,4.00
2022-12-26T20:22:06.582Z,3.63
2022-12-26T20:24:36.269Z,3.37
2022-12-26T20:27:05.421Z,3.20
2022-12-26T20:29:34.393Z,3.60
2022-12-26T20:32:02.845Z,3.90
2022-12-26T20:34:31.590Z,3.07
2022-12-26T20:36:59.972Z,3.80
2022-12-26T20:39:31.994Z,3.40
2022-12-26T20:42:01.355Z,3.20
2022-12-26T20:44:30.108Z,3.53
2022-12-26T20:46:58.453Z,3.70
2022-12-26T20:49:27.032Z,3.93
2022-12-26T20:51:55.658Z,3.92
2022-12-26T20:54:24.911Z,4.77
2022-12-26T20:56:54.647Z,3.63
2022-12-26T20:59:23.636Z,3.83
2022-12-26T21:01:52.107Z,4.37
2022-12-26T21:04:22.887Z,4.63
2022-12-26T21:06:52.022Z,3.40
2022-12-26T21:09:20.907Z,3.83
2022-12-26T21:11:49.268Z,4.23
2022-12-26T21:14:21.706Z,4.15
2022-12-26T21:16:52.422Z,4.25
2022-12-26T21:19:22.821Z,4.32
2022-12-26T21:21:53.030Z,4.37
2022-12-26T21:24:23.618Z,4.30
2022-12-26T21:26:51.940Z,4.27
2022-12-26T21:29:24.890Z,3.97
2022-12-26T21:31:54.020Z,4.13
2022-12-26T21:34:24.911Z,5.07
2022-12-26T21:37:10.907Z,4.47
2022-12-26T21:39:40.639Z,4.37
2022-12-26T21:42:10.185Z,4.47
2022-12-26T21:44:40.307Z,5.43
2022-12-26T21:47:09.272Z,5.03
2022-12-26T21:49:38.304Z,5.37
2022-12-26T21:52:07.892Z,5.00
2022-12-26T21:54:54.288Z,4.43
2022-12-26T21:57:23.160Z,5.43
2022-12-26T21:59:59.722Z,6.50
2022-12-26T22:02:48.254Z,5.20
2022-12-26T22:05:18.455Z,5.87
2022-12-26T22:07:47.707Z,4.73
2022-12-26T22:10:30.254Z,6.23
2022-12-26T22:12:58.773Z,5.37
2022-12-26T22:15:46.057Z,4.53
2022-12-26T22:18:14.556Z,4.97
2022-12-26T22:20:45.270Z,5.87
2022-12-26T22:23:14.293Z,4.63
2022-12-26T22:25:43.010Z,4.30
2022-12-26T22:28:11.596Z,4.77
2022-12-26T22:30:47.859Z,5.23
2022-12-26T22:33:16.576Z,5.57
2022-12-26T22:35:45.494Z,7.30
2022-12-26T22:38:14.196Z,6.57
2022-12-26T22:40:43.496Z,8.63
2022-12-26T22:43:11.765Z,7.80
2022-12-26T22:45:44.856Z,7.73
2022-12-26T22:48:13.385Z,6.20
2022-12-26T22:50:44.383Z,5.70
2022-12-26T22:53:13.446Z,4.93
2022-12-26T22:55:48.657Z,3.70
2022-12-26T22:58:18.493Z,4.23
2022-12-26T23:00:49.409Z,4.50
2022-12-26T23:03:18.117Z,4.33
2022-12-26T23:05:48.124Z,4.00
2022-12-26T23:08:19.423Z,6.73
2022-12-26T23:10:50.089Z,6.73
2022-12-26T23:13:19.155Z,6.67
2022-12-26T23:15:56.902Z,10.33
2022-12-26T23:18:53.055Z,10.13
2022-12-26T23:21:43.019Z,11.83
2022-12-26T23:24:16.495Z,12.83
2022-12-26T23:26:48.493Z,12.23
2022-12-26T23:29:36.095Z,12.00
2022-12-26T23:32:06.674Z,14.07
2022-12-26T23:34:35.649Z,12.03
2022-12-26T23:37:04.873Z,13.93
2022-12-26T23:39:33.503Z,9.77
2022-12-26T23:42:02.068Z,10.23
2022-12-26T23:44:30.542Z,10.40
2022-12-26T23:46:59.224Z,14.87
2022-12-26T23:49:28.908Z,18.80
2022-12-26T23:51:57.491Z,19.80
2022-12-26T23:54:26.067Z,14.47
2022-12-26T23:56:55.029Z,12.83
2022-12-26T23:59:23.508Z,13.60
